createdAt,value
2018-09-18T00:02:27.001Z,99.90
2018-09-18T00:04:57.510Z,99.90
2018-09-18T00:07:26.794Z,99.90
2018-09-18T00:09:56.416Z,99.90
2018-09-18T00:12:26.238Z,99.90
2018-09-18T00:14:56.566Z,99.90
2018-09-18T00:17:26.042Z,99.90
2018-09-18T00:19:55.758Z,99.90
2018-09-18T00:22:25.372Z,99.90
2018-09-18T00:24:56.375Z,99.90
2018-09-18T00:27:25.858Z,99.90
2018-09-18T00:29:55.596Z,99.90
2018-09-18T00:32:25.967Z,99.90
2018-09-18T00:34:56.748Z,99.90
2018-09-18T00:37:26.350Z,99.90
2018-09-18T00:39:57.105Z,99.90
2018-09-18T00:42:26.591Z,99.90
2018-09-18T00:44:57.285Z,99.90
2018-09-18T00:47:26.835Z,99.90
2018-09-18T00:49:57.034Z,99.90
2018-09-18T00:52:26.748Z,99.90
2018-09-18T00:54:56.721Z,99.90
2018-09-18T00:57:26.485Z,99.90
2018-09-18T00:59:56.842Z,99.90
2018-09-18T01:02:27.304Z,99.90
2018-09-18T01:04:57.170Z,99.90
2018-09-18T01:07:26.822Z,99.90
2018-09-18T01:09:56.375Z,99.90
2018-09-18T01:12:26.247Z,99.90
2018-09-18T01:14:55.905Z,99.90
2018-09-18T01:17:27.052Z,99.90
2018-09-18T01:19:56.513Z,99.90
2018-09-18T01:22:26.443Z,99.90
2018-09-18T01:24:57.096Z,99.90
2018-09-18T01:27:28.107Z,99.90
2018-09-18T01:29:57.212Z,99.90
2018-09-18T01:32:27.184Z,99.90
2018-09-18T01:34:56.857Z,99.90
2018-09-18T01:37:26.726Z,99.90
2018-09-18T01:39:56.291Z,99.90
2018-09-18T01:42:25.740Z,99.90
2018-09-18T01:44:56.102Z,99.90
2018-09-18T01:47:26.377Z,99.90
2018-09-18T01:49:55.948Z,99.90
2018-09-18T01:52:26.562Z,99.90
2018-09-18T01:54:56.572Z,99.90
2018-09-18T01:57:26.411Z,99.90
2018-09-18T01:59:56.807Z,99.90
2018-09-18T02:02:27.320Z,99.90
2018-09-18T02:04:57.460Z,99.90
2018-09-18T02:07:27.686Z,99.90
2018-09-18T02:09:58.028Z,99.90
2018-09-18T02:12:27.830Z,99.90
2018-09-18T02:14:57.052Z,99.90
2018-09-18T02:17:26.795Z,99.90
2018-09-18T02:19:57.464Z,99.90
2018-09-18T02:22:27.416Z,99.90
2018-09-18T02:24:57.767Z,99.90
2018-09-18T02:27:28.860Z,99.90
2018-09-18T02:29:59.563Z,99.90
2018-09-18T02:32:30.544Z,99.90
2018-09-18T02:35:00.161Z,99.90
2018-09-18T02:37:30.077Z,99.90
2018-09-18T02:40:00.727Z,99.90
2018-09-18T02:42:29.893Z,99.90
2018-09-18T02:45:01.291Z,99.90
2018-09-18T02:47:30.429Z,99.90
2018-09-18T02:49:59.458Z,99.90
2018-09-18T02:52:28.359Z,99.90
2018-09-18T02:54:57.477Z,99.90
2018-09-18T02:57:26.837Z,99.90
2018-09-18T02:59:56.573Z,99.90
2018-09-18T03:02:26.645Z,99.90
2018-09-18T03:04:57.313Z,99.90
2018-09-18T03:07:27.442Z,99.90
2018-09-18T03:09:57.272Z,99.90
2018-09-18T03:12:26.899Z,99.90
2018-09-18T03:14:57.441Z,99.90
2018-09-18T03:17:27.031Z,99.90
2018-09-18T03:19:57.598Z,99.90
2018-09-18T03:22:27.458Z,99.90
2018-09-18T03:24:56.633Z,99.90
2018-09-18T03:27:27.158Z,99.90
2018-09-18T03:29:57.300Z,99.90
2018-09-18T03:32:27.080Z,99.90
2018-09-18T03:34:58.085Z,99.90
2018-09-18T03:37:28.210Z,99.90
2018-09-18T03:39:58.044Z,99.90
2018-09-18T03:42:28.559Z,99.90
2018-09-18T03:44:59.722Z,99.90
2018-09-18T03:47:28.619Z,99.90
2018-09-18T03:49:57.832Z,99.90
2018-09-18T03:52:27.538Z,99.90
2018-09-18T03:54:56.956Z,99.90
2018-09-18T03:57:26.704Z,99.90
2018-09-18T03:59:57.195Z,99.90
2018-09-18T04:02:26.934Z,99.90
2018-09-18T04:04:56.956Z,99.90
2018-09-18T04:07:27.631Z,99.90
2018-09-18T04:09:58.867Z,99.90
2018-09-18T04:12:28.582Z,99.90
2018-09-18T04:14:59.132Z,99.90
2018-09-18T04:17:50.206Z,99.90
2018-09-18T04:20:20.189Z,99.90
2018-09-18T04:22:49.681Z,99.90
2018-09-18T04:25:36.239Z,99.90
2018-09-18T04:28:06.783Z,99.90
2018-09-18T04:30:36.691Z,99.90
2018-09-18T04:33:05.044Z,99.90
2018-09-18T04:35:35.227Z,99.90
2018-09-18T04:38:04.029Z,99.90
2018-09-18T04:40:32.955Z,99.90
2018-09-18T04:43:04.303Z,99.90
2018-09-18T04:45:34.126Z,99.90
2018-09-18T04:48:02.972Z,99.90
2018-09-18T04:50:31.765Z,99.90
2018-09-18T04:53:00.685Z,99.90
2018-09-18T04:55:30.436Z,99.90
2018-09-18T04:57:59.859Z,99.90
2018-09-18T05:00:29.146Z,99.90
2018-09-18T05:02:58.849Z,99.90
2018-09-18T05:05:28.579Z,99.90
2018-09-18T05:07:58.732Z,99.90
2018-09-18T05:10:29.399Z,99.90
2018-09-18T05:12:58.520Z,99.90
2018-09-18T05:15:27.331Z,99.90
2018-09-18T05:17:57.787Z,99.90
2018-09-18T05:20:28.611Z,99.90
2018-09-18T05:22:57.795Z,99.90
2018-09-18T05:25:27.177Z,99.90
2018-09-18T05:27:56.787Z,99.90
2018-09-18T05:30:26.438Z,99.90
2018-09-18T05:32:55.458Z,99.90
2018-09-18T05:35:26.774Z,99.90
2018-09-18T05:37:55.845Z,99.90
2018-09-18T05:40:24.644Z,99.90
2018-09-18T05:42:54.169Z,99.90
2018-09-18T05:45:25.085Z,99.90
2018-09-18T05:47:56.934Z,99.90
2018-09-18T05:50:25.809Z,99.90
2018-09-18T05:52:56.146Z,99.90
2018-09-18T05:55:29.982Z,99.90
2018-09-18T05:58:15.200Z,99.90
2018-09-18T06:00:43.706Z,99.90
2018-09-18T06:03:12.428Z,99.90
2018-09-18T06:05:43.099Z,99.90
2018-09-18T06:08:11.359Z,99.90
2018-09-18T06:10:39.577Z,99.90
2018-09-18T06:13:07.867Z,99.90
2018-09-18T06:15:36.048Z,99.90
2018-09-18T06:18:04.258Z,99.90
2018-09-18T06:20:32.511Z,99.90
2018-09-18T06:23:00.761Z,99.90
2018-09-18T06:25:28.951Z,99.90
2018-09-18T06:27:57.204Z,99.90
2018-09-18T06:30:25.499Z,99.90
2018-09-18T06:32:55.864Z,99.90
2018-09-18T06:35:26.883Z,99.90
2018-09-18T06:37:56.349Z,99.90
2018-09-18T06:40:26.151Z,99.90
2018-09-18T06:42:55.128Z,99.90
2018-09-18T06:45:24.771Z,99.90
2018-09-18T06:47:55.768Z,99.90
2018-09-18T06:50:30.686Z,99.90
2018-09-18T06:53:13.481Z,99.90
2018-09-18T06:55:54.741Z,99.90
2018-09-18T06:58:26.851Z,99.90
2018-09-18T07:01:43.971Z,99.90
2018-09-18T07:04:15.260Z,99.90
2018-09-18T07:06:59.733Z,99.90
2018-09-18T07:09:35.045Z,99.90
2018-09-18T07:12:05.334Z,99.90
2018-09-18T07:14:36.859Z,99.90
2018-09-18T07:17:06.836Z,99.90
2018-09-18T07:19:38.800Z,99.90
2018-09-18T07:22:12.314Z,99.90
2018-09-18T07:24:41.022Z,99.90
2018-09-18T07:27:10.729Z,99.90
2018-09-18T07:29:44.103Z,99.90
2018-09-18T07:32:13.969Z,99.90
2018-09-18T07:34:44.464Z,99.90
2018-09-18T07:37:17.782Z,99.90
2018-09-18T07:39:54.696Z,99.90
2018-09-18T07:42:29.105Z,99.90
2018-09-18T07:44:59.474Z,99.90
2018-09-18T07:47:33.181Z,99.90
2018-09-18T07:50:04.983Z,99.90
2018-09-18T07:52:35.298Z,99.90
2018-09-18T07:55:08.369Z,99.90
2018-09-18T07:57:37.705Z,99.90
2018-09-18T08:00:06.679Z,99.90
2018-09-18T08:02:39.279Z,99.90
2018-09-18T08:05:11.571Z,99.90
2018-09-18T08:07:49.835Z,99.90
2018-09-18T08:10:23.464Z,99.90
2018-09-18T08:12:54.963Z,99.90
2018-09-18T08:15:26.298Z,99.90
2018-09-18T08:17:57.899Z,99.90
2018-09-18T08:20:29.070Z,99.90
2018-09-18T08:22:59.650Z,99.90
2018-09-18T08:25:38.467Z,99.90
2018-09-18T08:28:12.623Z,99.90
2018-09-18T08:30:44.725Z,99.90
2018-09-18T08:33:23.900Z,99.90
2018-09-18T08:35:56.902Z,99.90
2018-09-18T08:38:28.564Z,99.90
2018-09-18T08:41:00.546Z,99.90
2018-09-18T08:43:30.142Z,99.90
2018-09-18T08:46:00.185Z,99.90
2018-09-18T08:48:37.159Z,99.90
2018-09-18T08:51:19.815Z,99.90
2018-09-18T08:53:55.641Z,99.90
2018-09-18T08:56:29.573Z,99.90
2018-09-18T08:59:01.830Z,99.90
2018-09-18T09:01:34.062Z,99.90
2018-09-18T09:04:06.940Z,99.90
2018-09-18T09:06:39.947Z,99.80
2018-09-18T09:09:20.901Z,99.40
2018-09-18T09:11:54.195Z,98.60
2018-09-18T09:14:27.626Z,98.30
2018-09-18T09:17:00.049Z,98.10
2018-09-18T09:19:30.761Z,97.90
2018-09-18T09:22:00.874Z,96.90
2018-09-18T09:24:34.871Z,96.20
2018-09-18T09:27:09.187Z,96.30
2018-09-18T09:29:46.977Z,95.70
2018-09-18T09:32:25.867Z,94.90
2018-09-18T09:34:59.496Z,93.80
2018-09-18T09:37:33.698Z,93.40
2018-09-18T09:40:05.272Z,93.20
2018-09-18T09:42:34.916Z,93.20
2018-09-18T09:45:09.297Z,93.20
2018-09-18T09:47:37.588Z,92.60
2018-09-18T09:50:06.452Z,91.40
2018-09-18T09:52:36.402Z,91.40
2018-09-18T09:55:04.645Z,91.30
2018-09-18T09:57:34.612Z,90.50
2018-09-18T10:00:04.449Z,90.00
2018-09-18T10:02:42.309Z,89.80
2018-09-18T10:05:11.394Z,90.30
2018-09-18T10:07:39.713Z,89.80
2018-09-18T10:10:09.241Z,90.30
2018-09-18T10:12:40.925Z,90.80
2018-09-18T10:15:23.085Z,90.60
2018-09-18T10:17:56.129Z,90.60
2018-09-18T10:20:29.195Z,90.60
2018-09-18T10:23:09.759Z,90.40
2018-09-18T10:25:40.053Z,89.90
2018-09-18T10:28:08.749Z,89.80
2018-09-18T10:30:36.952Z,89.20
2018-09-18T10:33:11.458Z,89.20
2018-09-18T10:35:44.278Z,89.10
2018-09-18T10:38:14.704Z,89.10
2018-09-18T10:40:57.010Z,89.50
2018-09-18T10:43:26.540Z,89.20
2018-09-18T10:45:55.792Z,88.80
2018-09-18T10:48:25.419Z,88.40
2018-09-18T10:50:54.932Z,88.90
2018-09-18T10:53:24.316Z,88.60
2018-09-18T10:55:55.146Z,89.30
2018-09-18T10:58:26.309Z,90.00
2018-09-18T11:00:56.572Z,90.50
2018-09-18T11:03:27.149Z,90.40
2018-09-18T11:06:00.243Z,90.30
2018-09-18T11:08:32.049Z,90.50
2018-09-18T11:11:03.063Z,90.40
2018-09-18T11:13:33.927Z,90.80
2018-09-18T11:16:04.483Z,90.00
2018-09-18T11:18:36.508Z,89.20
2018-09-18T11:21:07.605Z,89.40
2018-09-18T11:23:37.027Z,88.20
2018-09-18T11:26:06.292Z,87.10
2018-09-18T11:28:40.544Z,86.10
2018-09-18T11:31:22.863Z,86.20
2018-09-18T11:33:55.358Z,82.70
2018-09-18T11:36:31.857Z,81.20
2018-09-18T11:39:04.547Z,79.80
2018-09-18T11:41:32.882Z,78.60
2018-09-18T11:44:02.396Z,77.00
2018-09-18T11:46:32.882Z,76.40
2018-09-18T11:49:28.002Z,74.60
2018-09-18T11:52:01.269Z,72.40
2018-09-18T11:54:33.102Z,70.50
2018-09-18T11:57:07.449Z,70.00
2018-09-18T11:59:40.236Z,69.10
2018-09-18T12:02:18.277Z,67.40
2018-09-18T12:04:48.118Z,65.80
2018-09-18T12:07:17.968Z,64.60
2018-09-18T12:09:52.556Z,63.70
2018-09-18T12:12:26.709Z,63.10
2018-09-18T12:14:59.798Z,62.40
2018-09-18T12:17:29.420Z,62.70
2018-09-18T12:20:08.277Z,61.00
2018-09-18T12:22:40.868Z,59.40
2018-09-18T12:25:14.661Z,59.10
2018-09-18T12:27:48.811Z,57.40
2018-09-18T12:30:19.972Z,57.10
2018-09-18T12:32:53.408Z,57.40
2018-09-18T12:35:27.757Z,56.60
2018-09-18T12:37:58.494Z,53.90
2018-09-18T12:40:35.896Z,54.20
2018-09-18T12:43:10.438Z,53.80
2018-09-18T12:45:44.785Z,52.90
2018-09-18T12:48:17.807Z,53.20
2018-09-18T12:50:47.848Z,53.20
2018-09-18T12:53:21.755Z,52.30
2018-09-18T12:56:01.804Z,52.20
2018-09-18T12:58:38.228Z,51.30
2018-09-18T13:01:11.283Z,51.00
2018-09-18T13:03:42.407Z,50.70
2018-09-18T13:06:14.465Z,50.20
2018-09-18T13:08:44.514Z,49.80
2018-09-18T13:11:15.739Z,49.80
2018-09-18T13:13:45.181Z,49.10
2018-09-18T13:16:15.529Z,49.10
2018-09-18T13:18:45.310Z,49.20
2018-09-18T13:21:17.201Z,48.90
2018-09-18T13:23:46.671Z,48.70
2018-09-18T13:26:18.986Z,48.60
2018-09-18T13:28:50.717Z,48.10
2018-09-18T13:31:25.617Z,45.90
2018-09-18T13:33:59.253Z,45.90
2018-09-18T13:36:29.504Z,45.30
2018-09-18T13:38:57.925Z,45.10
2018-09-18T13:41:32.556Z,44.80
2018-09-18T13:44:10.202Z,44.00
2018-09-18T13:46:41.204Z,43.80
2018-09-18T13:49:16.629Z,44.20
2018-09-18T13:51:46.847Z,44.50
2018-09-18T13:54:18.883Z,44.20
2018-09-18T13:56:55.157Z,43.20
2018-09-18T13:59:26.948Z,40.50
2018-09-18T14:02:03.672Z,39.60
2018-09-18T14:04:39.645Z,39.40
2018-09-18T14:07:14.209Z,38.90
2018-09-18T14:09:49.205Z,39.10
2018-09-18T14:12:23.804Z,39.20
2018-09-18T14:14:59.439Z,38.80
2018-09-18T14:17:32.966Z,38.80
2018-09-18T14:20:08.507Z,38.00
2018-09-18T14:22:44.373Z,37.80
2018-09-18T14:25:13.092Z,37.10
2018-09-18T14:27:45.734Z,36.80
2018-09-18T14:30:18.093Z,37.00
2018-09-18T14:32:50.369Z,37.10
2018-09-18T14:38:49.183Z,37.30
2018-09-18T14:41:22.715Z,37.00
2018-09-18T14:43:55.080Z,37.00
2018-09-18T14:46:27.981Z,37.20
2018-09-18T14:48:57.957Z,37.10
2018-09-18T14:51:35.590Z,37.70
2018-09-18T14:54:14.566Z,37.80
2018-09-18T14:56:47.729Z,37.50
2018-09-18T14:59:20.618Z,37.20
2018-09-18T15:01:52.731Z,37.00
2018-09-18T15:04:26.634Z,36.50
2018-09-18T15:06:57.222Z,36.60
2018-09-18T15:09:31.024Z,36.90
2018-09-18T15:14:41.854Z,36.30
2018-09-18T15:17:16.752Z,35.90
2018-09-18T15:19:48.837Z,37.50
2018-09-18T15:22:22.420Z,36.80
2018-09-18T15:25:04.193Z,37.20
2018-09-18T15:27:43.021Z,36.50
2018-09-18T15:30:24.037Z,36.70
2018-09-18T15:32:54.696Z,37.00
2018-09-18T15:35:27.907Z,37.30
2018-09-18T15:38:05.327Z,37.40
2018-09-18T15:40:38.035Z,37.50
2018-09-18T15:43:11.642Z,37.20
2018-09-18T15:45:44.301Z,37.20
2018-09-18T15:48:14.967Z,37.20
2018-09-18T15:50:50.799Z,37.50
2018-09-18T15:53:21.469Z,37.30
2018-09-18T15:55:55.473Z,37.50
2018-09-18T15:58:27.247Z,36.70
2018-09-18T16:00:58.652Z,36.70
2018-09-18T16:03:29.616Z,36.70
2018-09-18T16:06:05.901Z,36.90
2018-09-18T16:08:39.261Z,37.60
2018-09-18T16:11:17.199Z,36.70
2018-09-18T16:13:46.983Z,37.10
2018-09-18T16:16:22.345Z,37.10
2018-09-18T16:18:57.507Z,37.20
2018-09-18T16:21:30.717Z,37.60
2018-09-18T16:24:08.710Z,38.10
2018-09-18T16:26:41.202Z,38.10
2018-09-18T16:29:12.521Z,38.60
2018-09-18T16:31:53.483Z,39.00
2018-09-18T16:34:27.511Z,39.60
2018-09-18T16:36:58.976Z,39.70
2018-09-18T16:39:31.047Z,39.80
2018-09-18T16:42:08.625Z,39.90
2018-09-18T16:44:41.453Z,40.60
2018-09-18T16:47:13.898Z,41.60
2018-09-18T16:49:49.002Z,41.40
2018-09-18T16:52:21.125Z,42.20
2018-09-18T16:54:54.337Z,42.80
2018-09-18T17:04:30.396Z,43.90
2018-09-18T17:07:03.935Z,45.00
2018-09-18T17:09:40.004Z,45.50
2018-09-18T17:12:10.757Z,45.30
2018-09-18T17:14:43.887Z,45.70
2018-09-18T17:17:14.845Z,45.40
2018-09-18T17:19:53.548Z,45.20
2018-09-18T17:22:25.799Z,45.10
2018-09-18T17:24:56.236Z,44.70
2018-09-18T17:27:38.844Z,44.80
2018-09-18T17:30:13.164Z,45.10
2018-09-18T17:32:47.342Z,45.00
2018-09-18T17:35:21.189Z,45.10
2018-09-18T17:37:54.020Z,45.10
2018-09-18T17:40:27.853Z,45.60
2018-09-18T17:42:59.004Z,45.70
2018-09-18T17:45:32.350Z,45.80
2018-09-18T17:48:05.155Z,45.80
2018-09-18T17:50:38.302Z,46.00
2018-09-18T17:53:09.832Z,46.10
2018-09-18T17:55:42.450Z,46.10
2018-09-18T17:58:12.924Z,46.80
2018-09-18T18:00:45.055Z,46.30
2018-09-18T18:03:13.988Z,46.30
2018-09-18T18:05:43.026Z,46.40
2018-09-18T18:08:11.913Z,46.40
2018-09-18T18:10:44.318Z,46.80
2018-09-18T18:13:16.741Z,47.20
2018-09-18T18:15:46.492Z,47.00
2018-09-18T18:18:21.641Z,47.10
2018-09-18T18:20:50.954Z,47.60
2018-09-18T18:23:22.469Z,47.50
2018-09-18T18:25:53.909Z,47.90
2018-09-18T18:28:34.098Z,48.50
2018-09-18T18:31:07.353Z,48.40
2018-09-18T18:33:44.690Z,49.60
2018-09-18T18:36:17.366Z,50.00
2018-09-18T18:38:48.950Z,50.40
2018-09-18T18:41:20.052Z,50.90
2018-09-18T18:43:52.072Z,50.80
2018-09-18T18:46:23.755Z,51.20
2018-09-18T18:48:53.040Z,51.40
2018-09-18T18:51:23.970Z,51.90
2018-09-18T18:53:56.148Z,52.20
2018-09-18T18:56:27.808Z,52.40
2018-09-18T18:59:06.614Z,52.80
2018-09-18T19:01:40.196Z,53.20
2018-09-18T19:04:11.157Z,53.60
2018-09-18T19:06:42.545Z,53.90
2018-09-18T19:09:15.023Z,54.10
2018-09-18T19:11:47.878Z,54.50
2018-09-18T19:14:17.236Z,54.80
2018-09-18T19:16:48.444Z,55.10
2018-09-18T19:19:19.717Z,54.90
2018-09-18T19:21:49.344Z,55.40
2018-09-18T19:24:24.915Z,56.10
2018-09-18T19:26:56.204Z,56.20
2018-09-18T19:29:24.587Z,56.60
2018-09-18T19:31:53.969Z,56.70
2018-09-18T19:34:24.701Z,57.00
2018-09-18T19:36:55.599Z,56.90
2018-09-18T19:39:25.420Z,57.30
2018-09-18T19:41:54.267Z,57.60
2018-09-18T19:44:22.476Z,57.70
2018-09-18T19:46:53.398Z,57.80
2018-09-18T19:49:24.328Z,58.10
2018-09-18T19:51:53.464Z,58.30
2018-09-18T19:54:23.475Z,58.40
2018-09-18T19:56:57.698Z,58.50
2018-09-18T19:59:26.866Z,58.80
2018-09-18T20:01:57.038Z,59.30
2018-09-18T20:04:28.828Z,60.10
2018-09-18T20:06:58.180Z,59.80
2018-09-18T20:09:29.857Z,60.00
2018-09-18T20:11:59.060Z,60.50
2018-09-18T20:14:31.385Z,61.20
2018-09-18T20:17:03.761Z,61.80
2018-09-18T20:19:36.223Z,62.00
2018-09-18T20:22:08.034Z,62.50
2018-09-18T20:24:39.478Z,62.90
2018-09-18T20:27:10.579Z,63.60
2018-09-18T20:29:49.731Z,64.50
2018-09-18T20:32:20.176Z,65.00
2018-09-18T20:34:53.177Z,65.30
2018-09-18T20:37:25.814Z,65.80
2018-09-18T20:39:54.060Z,66.00
2018-09-18T20:42:28.417Z,66.50
2018-09-18T20:45:03.135Z,66.50
2018-09-18T20:47:38.344Z,67.20
2018-09-18T20:50:10.973Z,68.20
2018-09-18T20:52:41.635Z,68.30
2018-09-18T20:55:13.688Z,68.30
2018-09-18T20:57:46.060Z,68.90
2018-09-18T21:00:19.055Z,69.00
2018-09-18T21:02:58.046Z,68.80
2018-09-18T21:05:27.689Z,69.70
2018-09-18T21:07:59.463Z,70.20
2018-09-18T21:10:30.327Z,71.10
2018-09-18T21:13:03.572Z,71.60
2018-09-18T21:15:39.322Z,71.20
2018-09-18T21:21:19.095Z,73.70
2018-09-18T21:23:50.668Z,74.60
2018-09-18T21:26:19.833Z,75.70
2018-09-18T21:28:50.317Z,76.20
2018-09-18T21:31:20.452Z,76.30
2018-09-18T21:33:50.155Z,77.30
2018-09-18T21:36:39.806Z,76.90
2018-09-18T21:39:17.916Z,77.20
2018-09-18T21:41:55.577Z,78.90
2018-09-18T21:44:36.917Z,80.40
2018-09-18T21:47:19.787Z,79.80
2018-09-18T21:50:01.234Z,80.20
2018-09-18T21:52:29.419Z,82.10
2018-09-18T21:54:57.630Z,83.20
2018-09-18T21:57:38.069Z,84.30
2018-09-18T22:00:19.589Z,85.80
2018-09-18T22:03:23.173Z,86.80
2018-09-18T22:05:51.381Z,87.50
2018-09-18T22:08:41.676Z,88.50
2018-09-18T22:11:14.521Z,89.70
2018-09-18T22:13:49.991Z,90.30
2018-09-18T22:16:24.881Z,90.70
2018-09-18T22:18:55.829Z,91.40
2018-09-18T22:21:52.490Z,91.60
2018-09-18T22:24:21.509Z,92.00
2018-09-18T22:26:54.939Z,92.10
2018-09-18T22:29:42.869Z,92.40
2018-09-18T22:32:17.022Z,92.90
2018-09-18T22:34:55.754Z,92.70
2018-09-18T22:37:48.899Z,93.40
2018-09-18T22:40:21.622Z,93.60
2018-09-18T22:43:06.745Z,94.00
2018-09-18T22:45:43.972Z,94.00
2018-09-18T22:48:17.159Z,94.70
2018-09-18T22:50:51.454Z,95.00
2018-09-18T22:53:20.803Z,95.70
2018-09-18T22:55:53.367Z,96.50
2018-09-18T22:58:42.026Z,97.10
2018-09-18T23:01:27.850Z,97.50
2018-09-18T23:03:56.242Z,98.10
2018-09-18T23:06:44.061Z,99.20
2018-09-18T23:09:17.718Z,99.90
2018-09-18T23:11:49.753Z,99.90
2018-09-18T23:14:24.904Z,99.90
2018-09-18T23:17:13.848Z,99.90
2018-09-18T23:19:46.463Z,99.90
2018-09-18T23:22:20.948Z,99.90
2018-09-18T23:24:51.899Z,99.90
2018-09-18T23:27:20.697Z,99.90
2018-09-18T23:29:53.959Z,99.90
2018-09-18T23:32:23.518Z,99.90
2018-09-18T23:34:51.697Z,99.90
2018-09-18T23:37:20.891Z,99.90
2018-09-18T23:39:50.569Z,99.90
2018-09-18T23:42:20.645Z,99.90
2018-09-18T23:47:40.351Z,99.90
2018-09-18T23:50:20.959Z,99.90
2018-09-18T23:53:01.709Z,99.90
2018-09-18T23:55:31.359Z,99.90
2018-09-18T23:57:59.655Z,99.90
